createdAt,value
2023-01-11T00:02:12.358Z,100.00
2023-01-11T00:04:41.471Z,100.00
2023-01-11T00:07:10.851Z,100.00
2023-01-11T00:09:39.905Z,100.00
2023-01-11T00:12:09.254Z,100.00
2023-01-11T00:14:38.240Z,100.00
2023-01-11T00:17:07.419Z,100.00
2023-01-11T00:19:36.616Z,100.00
2023-01-11T00:22:05.892Z,100.00
2023-01-11T00:24:35.139Z,100.00
2023-01-11T00:27:04.449Z,100.00
2023-01-11T00:29:33.454Z,100.00
2023-01-11T00:32:02.804Z,100.00
2023-01-11T00:34:31.877Z,100.00
2023-01-11T00:37:01.060Z,100.00
2023-01-11T00:39:30.132Z,100.00
2023-01-11T00:42:17.819Z,100.00
2023-01-11T00:45:05.233Z,100.00
2023-01-11T00:47:52.611Z,100.00
2023-01-11T00:50:22.074Z,100.00
2023-01-11T00:52:51.052Z,100.00
2023-01-11T00:55:20.782Z,100.00
2023-01-11T00:57:50.122Z,100.00
2023-01-11T01:00:20.033Z,100.00
2023-01-11T01:02:52.849Z,100.00
2023-01-11T01:05:25.432Z,100.00
2023-01-11T01:07:58.378Z,100.00
2023-01-11T01:10:32.898Z,100.00
2023-01-11T01:13:21.015Z,100.00
2023-01-11T01:15:51.499Z,100.00
2023-01-11T01:18:22.448Z,100.00
2023-01-11T01:20:53.391Z,100.00
2023-01-11T01:23:24.121Z,100.00
2023-01-11T01:25:54.507Z,100.00
2023-01-11T01:28:24.880Z,100.00
2023-01-11T01:30:55.132Z,100.00
2023-01-11T01:33:26.120Z,100.00
2023-01-11T01:35:56.840Z,100.00
2023-01-11T01:38:27.354Z,100.00
2023-01-11T01:40:58.930Z,100.00
2023-01-11T01:43:48.720Z,100.00
2023-01-11T01:46:21.476Z,100.00
2023-01-11T01:49:02.146Z,100.00
2023-01-11T01:51:44.263Z,100.00
2023-01-11T01:54:20.813Z,100.00
2023-01-11T01:57:01.858Z,100.00
2023-01-11T01:59:33.672Z,100.00
2023-01-11T02:02:03.991Z,100.00
2023-01-11T02:04:36.359Z,100.00
2023-01-11T02:07:45.743Z,100.00
2023-01-11T02:10:24.172Z,100.00
2023-01-11T04:04:52.130Z,100.00
2023-01-11T04:07:21.453Z,100.00
2023-01-11T04:09:51.019Z,100.00
2023-01-11T04:12:19.941Z,100.00
2023-01-11T04:14:49.089Z,100.00
2023-01-11T04:17:18.230Z,100.00
2023-01-11T04:19:47.482Z,100.00
2023-01-11T04:22:16.720Z,100.00
2023-01-11T04:24:45.976Z,100.00
2023-01-11T04:27:14.964Z,100.00
2023-01-11T04:29:44.118Z,100.00
2023-01-11T04:32:13.324Z,100.00
2023-01-11T04:34:43.036Z,100.00
2023-01-11T04:37:13.157Z,100.00
2023-01-11T04:39:42.213Z,100.00
2023-01-11T04:42:19.639Z,100.00
2023-01-11T04:44:52.823Z,100.00
2023-01-11T04:47:26.811Z,100.00
2023-01-11T04:49:56.048Z,100.00
2023-01-11T04:52:25.306Z,100.00
2023-01-11T04:54:55.011Z,100.00
2023-01-11T04:57:25.441Z,100.00
2023-01-11T04:59:55.033Z,100.00
2023-01-11T05:02:23.988Z,100.00
2023-01-11T05:04:53.533Z,100.00
2023-01-11T05:07:23.018Z,100.00
2023-01-11T05:09:52.037Z,100.00
2023-01-11T05:12:21.146Z,100.00
2023-01-11T05:14:50.155Z,100.00
2023-01-11T05:17:19.551Z,100.00
2023-01-11T05:19:48.696Z,100.00
2023-01-11T05:22:17.889Z,100.00
2023-01-11T05:24:47.228Z,100.00
2023-01-11T05:27:16.439Z,100.00
2023-01-11T05:29:45.551Z,100.00
2023-01-11T05:32:15.009Z,100.00
2023-01-11T05:34:44.479Z,100.00
2023-01-11T05:37:13.646Z,100.00
2023-01-11T05:39:43.713Z,100.00
2023-01-11T05:42:12.781Z,100.00
2023-01-11T05:45:00.220Z,100.00
2023-01-11T05:47:29.544Z,100.00
2023-01-11T05:49:58.726Z,100.00
2023-01-11T05:52:27.703Z,100.00
2023-01-11T05:54:56.986Z,100.00
2023-01-11T05:57:26.507Z,100.00
2023-01-11T05:59:55.507Z,100.00
2023-01-11T06:02:24.809Z,100.00
2023-01-11T06:04:55.518Z,100.00
2023-01-11T06:07:26.651Z,100.00
2023-01-11T06:09:55.863Z,100.00
2023-01-11T06:12:25.142Z,100.00
2023-01-11T06:14:54.188Z,100.00
2023-01-11T06:17:23.504Z,100.00
2023-01-11T06:19:52.666Z,100.00
2023-01-11T06:22:21.865Z,100.00
2023-01-11T06:24:50.863Z,100.00
2023-01-11T06:27:20.945Z,100.00
2023-01-11T06:29:50.491Z,100.00
2023-01-11T06:32:19.518Z,100.00
2023-01-11T06:34:48.370Z,100.00
2023-01-11T06:37:17.574Z,100.00
2023-01-11T06:39:46.763Z,100.00
2023-01-11T06:42:15.391Z,100.00
2023-01-11T06:44:44.622Z,100.00
2023-01-11T06:47:13.917Z,100.00
2023-01-11T06:49:43.091Z,100.00
2023-01-11T06:55:04.192Z,100.00
2023-01-11T06:57:34.581Z,100.00
2023-01-11T07:00:04.705Z,100.00
2023-01-11T07:02:34.617Z,100.00
2023-01-11T07:05:03.785Z,100.00
2023-01-11T07:07:33.158Z,100.00
2023-01-11T07:10:02.273Z,100.00
2023-01-11T07:12:32.024Z,100.00
2023-01-11T07:15:01.670Z,100.00
2023-01-11T07:17:30.603Z,100.00
2023-01-11T07:19:59.813Z,100.00
2023-01-11T07:22:29.075Z,100.00
2023-01-11T07:24:58.312Z,100.00
2023-01-11T07:27:27.377Z,100.00
2023-01-11T07:29:56.240Z,100.00
2023-01-11T07:32:25.375Z,100.00
2023-01-11T07:34:55.170Z,100.00
2023-01-11T07:37:29.625Z,100.00
2023-01-11T07:39:59.799Z,100.00
2023-01-11T07:42:47.725Z,100.00
2023-01-11T09:10:46.239Z,100.00
2023-01-11T09:13:15.994Z,100.00
2023-01-11T09:15:47.923Z,100.00
2023-01-11T09:18:17.892Z,100.00
2023-01-11T09:20:46.986Z,100.00
2023-01-11T09:23:16.506Z,100.00
2023-01-11T09:25:46.113Z,100.00
2023-01-11T09:28:16.345Z,100.00
2023-01-11T09:30:45.842Z,100.00
2023-01-11T09:33:15.220Z,100.00
2023-01-11T09:35:47.431Z,100.00
2023-01-11T09:38:17.639Z,100.00
2023-01-11T09:40:58.250Z,100.00
2023-01-11T09:43:29.823Z,100.00
2023-01-11T09:46:08.265Z,100.00
2023-01-11T09:49:08.942Z,100.00
2023-01-11T09:51:40.734Z,98.85
2023-01-11T09:54:17.101Z,98.01
2023-01-11T09:56:58.943Z,98.96
2023-01-11T09:59:49.694Z,100.00
2023-01-11T10:02:39.825Z,99.24
2023-01-11T10:05:30.697Z,98.78
2023-01-11T10:18:28.852Z,98.11
2023-01-11T10:18:29.332Z,98.27
2023-01-11T10:21:16.074Z,98.31
2023-01-11T10:23:55.183Z,98.52
2023-01-11T10:26:30.391Z,98.72
2023-01-11T10:29:18.499Z,98.97
2023-01-11T10:32:16.358Z,99.15
2023-01-11T10:35:15.376Z,98.93
2023-01-11T10:37:49.573Z,99.04
2023-01-11T10:40:36.931Z,98.86
2023-01-11T10:43:14.826Z,99.02
2023-01-11T10:45:50.863Z,99.17
2023-01-11T10:48:29.052Z,99.38
2023-01-11T10:51:16.510Z,100.00
2023-01-11T10:54:17.712Z,100.00
2023-01-11T10:57:14.292Z,100.00
2023-01-11T11:00:21.058Z,100.00
2023-01-11T11:03:20.047Z,100.00
2023-01-11T11:06:19.879Z,100.00
2023-01-11T11:09:17.606Z,100.00
2023-01-11T11:11:59.630Z,100.00
2023-01-11T11:14:40.607Z,100.00
2023-01-11T11:17:27.268Z,100.00
2023-01-11T11:19:56.236Z,100.00
2023-01-11T11:22:25.528Z,100.00
2023-01-11T11:25:01.337Z,100.00
2023-01-11T11:27:44.198Z,100.00
2023-01-11T11:30:15.300Z,100.00
2023-01-11T11:32:55.871Z,100.00
2023-01-11T11:35:32.274Z,100.00
2023-01-11T11:38:01.824Z,100.00
2023-01-11T11:40:34.537Z,100.00
2023-01-11T11:43:19.752Z,100.00
2023-01-11T11:45:54.608Z,100.00
2023-01-11T11:48:25.243Z,100.00
2023-01-11T11:51:06.648Z,100.00
2023-01-11T11:53:57.131Z,100.00
2023-01-11T11:56:30.855Z,100.00
2023-01-11T11:59:00.982Z,100.00
2023-01-11T12:01:37.522Z,100.00
2023-01-11T12:04:17.034Z,100.00
2023-01-11T12:07:14.136Z,100.00
2023-01-11T12:10:32.710Z,100.00
2023-01-11T12:13:03.944Z,100.00
2023-01-11T12:15:34.972Z,100.00
2023-01-11T12:18:31.735Z,100.00
2023-01-11T12:21:21.213Z,100.00
2023-01-11T12:24:20.266Z,100.00
2023-01-11T12:27:29.765Z,100.00
2023-01-11T12:30:35.382Z,100.00
2023-01-11T12:33:52.306Z,100.00
2023-01-11T12:36:35.231Z,100.00
2023-01-11T12:39:22.593Z,100.00
2023-01-11T12:42:26.083Z,100.00
2023-01-11T12:45:26.768Z,100.00
2023-01-11T12:48:20.508Z,100.00
2023-01-11T12:51:06.014Z,100.00
2023-01-11T12:53:40.805Z,100.00
2023-01-11T12:56:32.743Z,100.00
2023-01-11T12:59:29.509Z,100.00
2023-01-11T13:05:30.534Z,100.00
2023-01-11T13:08:25.163Z,100.00
2023-01-11T13:11:09.530Z,100.00
2023-01-11T13:14:02.117Z,100.00
2023-01-11T13:16:39.532Z,100.00
2023-01-11T13:19:35.828Z,100.00
2023-01-11T13:22:13.032Z,100.00
2023-01-11T13:24:43.846Z,100.00
2023-01-11T13:27:23.498Z,100.00
2023-01-11T13:29:56.188Z,100.00
2023-01-11T13:32:27.118Z,100.00
2023-01-11T13:34:58.643Z,100.00
2023-01-11T13:37:47.391Z,100.00
2023-01-11T13:40:35.190Z,100.00
2023-01-11T13:43:25.738Z,100.00
2023-01-11T13:46:04.643Z,100.00
2023-01-11T13:48:45.045Z,100.00
2023-01-11T13:51:24.351Z,100.00
2023-01-11T13:53:59.433Z,100.00
2023-01-11T13:56:42.652Z,100.00
2023-01-11T13:59:23.247Z,100.00
2023-01-11T14:02:04.597Z,100.00
2023-01-11T14:04:48.741Z,100.00
2023-01-11T14:07:51.565Z,100.00
2023-01-11T14:10:44.459Z,100.00
2023-01-11T14:13:46.711Z,100.00
2023-01-11T14:16:40.383Z,100.00
2023-01-11T14:19:38.150Z,100.00
2023-01-11T14:22:57.430Z,100.00
2023-01-11T14:25:31.952Z,100.00
2023-01-11T14:28:25.185Z,100.00
2023-01-11T14:31:03.370Z,100.00
2023-01-11T14:33:46.591Z,100.00
2023-01-11T14:36:44.019Z,100.00
2023-01-11T14:39:16.356Z,100.00
2023-01-11T14:42:03.458Z,100.00
2023-01-11T14:44:47.887Z,100.00
2023-01-11T14:47:44.196Z,100.00
2023-01-11T14:50:19.460Z,100.00
2023-01-11T14:52:50.710Z,100.00
2023-01-11T14:55:25.225Z,100.00
2023-01-11T14:57:57.009Z,100.00
2023-01-11T15:00:26.025Z,100.00
2023-01-11T15:03:18.955Z,100.00
2023-01-11T15:09:44.716Z,100.00
2023-01-11T15:12:22.413Z,100.00
2023-01-11T15:15:08.612Z,100.00
2023-01-11T15:17:56.125Z,100.00
2023-01-11T15:20:26.348Z,100.00
2023-01-11T15:23:07.098Z,100.00
2023-01-11T15:25:37.164Z,100.00
2023-01-11T15:28:35.104Z,100.00
2023-01-11T15:31:06.129Z,100.00
2023-01-11T15:33:55.345Z,100.00
2023-01-11T15:36:25.488Z,100.00
2023-01-11T15:39:07.194Z,100.00
2023-01-11T15:42:05.720Z,100.00
2023-01-11T15:45:02.073Z,100.00
2023-01-11T15:48:14.120Z,100.00
2023-01-11T15:51:19.481Z,100.00
2023-01-11T15:54:10.043Z,100.00
2023-01-11T15:57:04.233Z,100.00
2023-01-11T16:00:05.334Z,100.00
2023-01-11T16:03:10.869Z,100.00
2023-01-11T16:05:45.372Z,100.00
2023-01-11T16:08:33.866Z,100.00
2023-01-11T16:11:42.334Z,100.00
2023-01-11T16:14:48.312Z,100.00
2023-01-11T16:17:23.056Z,100.00
2023-01-11T16:19:57.777Z,100.00
2023-01-11T16:22:29.362Z,100.00
2023-01-11T16:25:06.526Z,100.00
2023-01-11T16:27:36.528Z,100.00
2023-01-11T16:30:06.587Z,100.00
2023-01-11T16:32:35.500Z,100.00
2023-01-11T16:35:17.404Z,100.00
2023-01-11T16:38:07.365Z,100.00
2023-01-11T16:40:43.339Z,100.00
2023-01-11T16:43:29.848Z,100.00
2023-01-11T16:45:59.541Z,100.00
2023-01-11T16:48:33.203Z,100.00
2023-01-11T16:51:03.783Z,100.00
2023-01-11T16:53:35.072Z,100.00
2023-01-11T16:56:14.908Z,100.00
2023-01-11T16:58:44.379Z,100.00
2023-01-11T17:01:16.230Z,100.00
2023-01-11T17:03:48.337Z,100.00
2023-01-11T17:06:20.752Z,100.00
2023-01-11T17:08:53.219Z,100.00
2023-01-11T17:11:48.221Z,100.00
2023-01-11T17:14:48.372Z,100.00
2023-01-11T17:17:18.654Z,100.00
2023-01-11T17:19:51.775Z,100.00
2023-01-11T17:22:23.818Z,100.00
2023-01-11T17:25:05.580Z,100.00
2023-01-11T17:27:43.084Z,100.00
2023-01-11T17:30:20.577Z,100.00
2023-01-11T17:32:55.735Z,100.00
2023-01-11T17:35:27.504Z,100.00
2023-01-11T17:38:02.936Z,100.00
2023-01-11T17:40:36.806Z,100.00
2023-01-11T17:43:42.398Z,100.00
2023-01-11T17:46:19.410Z,100.00
2023-01-11T17:49:00.841Z,100.00
2023-01-11T17:51:36.435Z,100.00
2023-01-11T17:54:05.591Z,100.00
2023-01-11T17:56:34.462Z,100.00
2023-01-11T17:59:24.420Z,100.00
2023-01-11T18:02:03.975Z,100.00
2023-01-11T18:04:33.576Z,100.00
2023-01-11T18:07:16.933Z,100.00
2023-01-11T18:09:49.141Z,100.00
2023-01-11T18:12:23.514Z,100.00
2023-01-11T18:14:55.866Z,100.00
2023-01-11T18:17:34.062Z,100.00
2023-01-11T18:20:23.982Z,100.00
2023-01-11T18:22:56.077Z,100.00
2023-01-11T18:25:27.332Z,100.00
2023-01-11T18:28:15.213Z,100.00
2023-01-11T18:30:47.403Z,100.00
2023-01-11T18:33:26.281Z,100.00
2023-01-11T18:36:04.159Z,100.00
2023-01-11T18:38:37.700Z,100.00
2023-01-11T18:41:29.278Z,100.00
2023-01-11T18:43:58.761Z,100.00
2023-01-11T18:46:28.001Z,100.00
2023-01-11T18:48:56.935Z,100.00
2023-01-11T18:51:26.446Z,100.00
2023-01-11T18:53:55.131Z,100.00
2023-01-11T18:56:24.012Z,100.00
2023-01-11T18:58:53.298Z,100.00
2023-01-11T19:01:22.235Z,100.00
2023-01-11T19:03:51.691Z,100.00
2023-01-11T19:06:22.684Z,100.00
2023-01-11T19:08:51.523Z,100.00
2023-01-11T19:11:20.289Z,100.00
2023-01-11T19:13:49.413Z,100.00
2023-01-11T19:16:18.514Z,100.00
2023-01-11T19:18:48.532Z,100.00
2023-01-11T19:21:17.424Z,100.00
2023-01-11T19:23:46.136Z,100.00
2023-01-11T19:26:15.088Z,100.00
2023-01-11T19:28:44.099Z,100.00
2023-01-11T19:31:13.494Z,100.00
2023-01-11T19:33:42.514Z,100.00
2023-01-11T19:36:12.105Z,100.00
2023-01-11T19:38:41.403Z,100.00
2023-01-11T19:41:11.679Z,100.00
2023-01-11T19:43:46.151Z,100.00
2023-01-11T19:46:30.131Z,100.00
2023-01-11T19:49:00.432Z,100.00
2023-01-11T19:51:29.179Z,100.00
2023-01-11T19:53:58.790Z,100.00
2023-01-11T19:56:27.658Z,100.00
2023-01-11T19:58:56.421Z,100.00
2023-01-11T20:01:25.400Z,100.00
2023-01-11T20:03:54.267Z,100.00
2023-01-11T20:06:23.155Z,100.00
2023-01-11T20:08:52.181Z,100.00
2023-01-11T20:11:21.126Z,100.00
2023-01-11T20:13:53.541Z,100.00
2023-01-11T20:16:24.916Z,100.00
2023-01-11T20:18:56.164Z,100.00
2023-01-11T20:21:28.697Z,100.00
2023-01-11T20:23:58.633Z,100.00
2023-01-11T20:26:29.228Z,100.00
2023-01-11T20:28:59.382Z,100.00
2023-01-11T20:31:33.080Z,100.00
2023-01-11T20:34:11.039Z,100.00
2023-01-11T20:36:41.343Z,100.00
2023-01-11T20:39:11.738Z,100.00
2023-01-11T20:41:53.746Z,100.00
2023-01-11T20:44:25.378Z,100.00
2023-01-11T20:46:57.157Z,100.00
2023-01-11T20:49:29.852Z,100.00
2023-01-11T20:51:59.727Z,100.00
2023-01-11T20:54:28.845Z,100.00
2023-01-11T20:57:03.204Z,100.00
2023-01-11T20:59:33.228Z,100.00
2023-01-11T21:02:02.241Z,100.00
2023-01-11T21:04:34.207Z,100.00
2023-01-11T21:07:03.651Z,100.00
2023-01-11T21:09:32.435Z,100.00
2023-01-11T21:12:01.606Z,100.00
2023-01-11T21:14:31.401Z,100.00
2023-01-11T21:17:00.743Z,100.00
2023-01-11T21:19:29.637Z,100.00
2023-01-11T21:21:58.428Z,100.00
2023-01-11T21:24:27.429Z,100.00
2023-01-11T21:26:56.210Z,100.00
2023-01-11T21:29:25.337Z,100.00
2023-01-11T21:31:54.322Z,100.00
2023-01-11T21:34:23.200Z,100.00
2023-01-11T21:36:52.209Z,100.00
2023-01-11T21:39:20.983Z,100.00
2023-01-11T21:41:56.283Z,100.00
2023-01-11T21:44:32.793Z,100.00
2023-01-11T21:47:04.214Z,100.00
2023-01-11T21:49:34.023Z,100.00
2023-01-11T21:52:02.698Z,100.00
2023-01-11T21:54:31.913Z,100.00
2023-01-11T21:57:00.728Z,100.00
2023-01-11T21:59:30.883Z,100.00
2023-01-11T22:02:00.617Z,100.00
2023-01-11T22:04:29.663Z,100.00
2023-01-11T22:07:00.993Z,100.00
2023-01-11T22:09:29.964Z,100.00
2023-01-11T22:11:58.883Z,100.00
2023-01-11T22:14:27.921Z,100.00
2023-01-11T22:16:57.067Z,100.00
2023-01-11T22:19:25.843Z,100.00
2023-01-11T22:21:54.988Z,100.00
2023-01-11T22:24:23.886Z,100.00
2023-01-11T22:26:53.010Z,100.00
2023-01-11T22:29:22.036Z,100.00
2023-01-11T22:31:55.555Z,100.00
2023-01-11T22:34:25.775Z,100.00
2023-01-11T22:36:57.879Z,100.00
2023-01-11T22:39:27.497Z,100.00
2023-01-11T22:41:56.463Z,100.00
2023-01-11T22:44:25.272Z,100.00
2023-01-11T22:46:54.817Z,100.00
2023-01-11T22:49:23.509Z,100.00
2023-01-11T22:51:52.445Z,100.00
2023-01-11T22:54:21.383Z,100.00
2023-01-11T22:56:50.308Z,100.00
2023-01-11T22:59:19.136Z,100.00
2023-01-11T23:01:48.118Z,100.00
2023-01-11T23:04:17.028Z,100.00
2023-01-11T23:06:45.753Z,100.00
2023-01-11T23:09:17.204Z,100.00
2023-01-11T23:12:05.247Z,100.00
2023-01-11T23:14:34.707Z,100.00
2023-01-11T23:17:08.987Z,100.00
2023-01-11T23:19:40.743Z,100.00
2023-01-11T23:22:11.279Z,100.00
2023-01-11T23:24:41.078Z,100.00
2023-01-11T23:27:10.180Z,100.00
2023-01-11T23:29:38.896Z,100.00
2023-01-11T23:32:08.007Z,100.00
2023-01-11T23:34:36.789Z,100.00
2023-01-11T23:37:06.040Z,100.00
2023-01-11T23:39:34.917Z,100.00
2023-01-11T23:42:22.142Z,100.00
2023-01-11T23:44:51.191Z,100.00
2023-01-11T23:47:23.042Z,100.00
2023-01-11T23:50:01.415Z,100.00
2023-01-11T23:52:32.788Z,100.00
2023-01-11T23:55:01.942Z,100.00
2023-01-11T23:57:30.596Z,100.00
2023-01-11T23:59:59.673Z,100.00
